Time;durP1;ratioP1;P1;durP2;ratioP2;P2;SDS_P1;SDS_P2;PMS_P1;PMS_P2;Temp;Humidity;BMP_temperature;BMP_pressure;BME280_temperature;BME280_humidity;BME280_pressure;Samples;Min_cycle;Max_cycle;Signal;HPM_P1;HPM_P2
2023/09/11 00:00:23;;;;;;;32.20;17.55;;;;;;;10.65;66.37;101217.30;1708333;83;21796;-56
2023/09/11 00:03:28;;;;;;;29.15;16.60;;;;;;;10.64;66.48;101218.30;1728090;81;21357;-56
2023/09/11 00:06:34;;;;;;;33.73;17.80;;;;;;;10.62;66.54;101216.74;1722249;81;21271;-55
2023/09/11 00:09:40;;;;;;;27.93;16.73;;;;;;;10.58;66.51;101212.95;1717512;81;21243;-54
2023/09/11 00:12:45;;;;;;;29.15;15.93;;;;;;;10.52;66.46;101213.58;1743749;80;21397;-56
2023/09/11 00:15:52;;;;;;;28.67;16.30;;;;;;;10.49;66.60;101211.16;1711141;83;21361;-56
2023/09/11 00:18:58;;;;;;;30.62;15.83;;;;;;;10.49;66.71;101207.05;1719514;83;21409;-55
2023/09/11 00:22:03;;;;;;;29.77;16.52;;;;;;;10.49;66.87;101213.89;1739568;80;21330;-55
2023/09/11 00:25:09;;;;;;;32.45;16.95;;;;;;;10.46;66.80;101210.06;1731786;82;21844;-55
2023/09/11 00:28:14;;;;;;;30.32;16.93;;;;;;;10.44;66.88;101208.02;1707600;83;21830;-55
2023/09/11 00:31:21;;;;;;;33.20;18.45;;;;;;;10.39;66.91;101207.61;1710996;83;21354;-55
2023/09/11 00:34:29;;;;;;;36.13;17.35;;;;;;;10.37;66.95;101204.16;1741904;81;21739;-55
2023/09/11 00:37:34;;;;;;;28.42;16.70;;;;;;;10.35;67.03;101208.92;1716852;83;21384;-55
2023/09/11 00:40:41;;;;;;;34.48;17.62;;;;;;;10.35;67.13;101204.81;1738573;81;21374;-55
2023/09/11 00:43:47;;;;;;;32.53;17.12;;;;;;;10.35;67.24;101207.55;1702638;84;21343;-55
2023/09/11 00:46:53;;;;;;;31.77;17.82;;;;;;;10.34;67.27;101203.60;1740968;81;21354;-55
2023/09/11 00:50:00;;;;;;;34.40;18.85;;;;;;;10.33;67.31;101207.37;1731559;80;21231;-55
2023/09/11 00:53:06;;;;;;;31.62;18.75;;;;;;;10.31;67.35;101200.68;1703521;83;21735;-55
2023/09/11 00:56:12;;;;;;;31.15;17.65;;;;;;;10.29;67.35;101198.59;1734822;81;21315;-56
2023/09/11 00:59:18;;;;;;;36.48;20.15;;;;;;;10.23;67.27;101195.61;1730823;82;21235;-55
2023/09/11 01:02:25;;;;;;;36.55;20.70;;;;;;;10.15;67.22;101191.41;1696322;82;21362;-55
2023/09/11 01:05:31;;;;;;;34.00;18.85;;;;;;;10.09;67.22;101184.70;1705125;82;21275;-54
2023/09/11 01:08:39;;;;;;;27.98;17.67;;;;;;;10.06;67.30;101189.08;1697396;83;21284;-55
2023/09/11 01:11:45;;;;;;;29.48;18.37;;;;;;;10.05;67.38;101193.33;1710691;82;21286;-55
2023/09/11 01:14:51;;;;;;;31.23;16.42;;;;;;;10.03;67.42;101188.02;1694064;82;21370;-54
2023/09/11 01:18:28;;;;;;;33.95;15.70;;;;;;;9.99;67.40;101187.95;1742130;81;21858;-55
2023/09/11 01:21:55;;;;;;;30.30;13.95;;;;;;;9.97;67.52;101187.23;1753379;81;21354;-55
2023/09/11 01:25:42;;;;;;;26.82;16.60;;;;;;;9.98;67.77;101181.27;1702268;82;23149;-55
2023/09/11 01:29:11;;;;;;;26.45;16.12;;;;;;;9.99;67.91;101192.05;1754510;81;21852;-54
2023/09/11 01:32:18;;;;;;;32.08;16.17;;;;;;;10.00;67.95;101181.48;1757210;81;21371;-56
2023/09/11 01:35:25;;;;;;;28.98;16.02;;;;;;;9.96;67.81;101180.05;1728559;81;21351;-55
2023/09/11 01:38:31;;;;;;;27.58;15.93;;;;;;;9.89;67.72;101183.06;1748698;81;21409;-55
2023/09/11 01:41:43;;;;;;;29.30;17.42;;;;;;;9.84;67.76;101182.65;1738630;81;21207;-55
2023/09/11 01:44:54;;;;;;;27.17;15.98;;;;;;;9.84;67.86;101179.92;1701857;82;21227;-55
2023/09/11 01:48:00;;;;;;;26.40;14.63;;;;;;;9.84;67.98;101175.81;1696307;82;21466;-55
2023/09/11 01:51:06;;;;;;;28.35;14.45;;;;;;;9.84;68.12;101173.08;1704177;81;21553;-54
2023/09/11 01:54:13;;;;;;;25.08;14.87;;;;;;;9.85;68.24;101175.28;1701859;82;21219;-60
2023/09/11 01:57:18;;;;;;;23.83;13.55;;;;;;;9.85;68.35;101175.28;1687628;82;21382;-56
2023/09/11 02:00:26;;;;;;;28.10;14.28;;;;;;;9.83;68.40;101175.44;1701224;83;21286;-55
2023/09/11 02:03:31;;;;;;;25.45;13.28;;;;;;;9.80;68.35;101173.02;1744263;82;21389;-54
2023/09/11 02:06:37;;;;;;;25.48;13.13;;;;;;;9.77;68.29;101166.98;1743337;81;21731;-55
2023/09/11 02:09:44;;;;;;;22.90;12.40;;;;;;;9.74;68.30;101170.89;1744550;82;21251;-55
2023/09/11 02:12:51;;;;;;;26.48;12.53;;;;;;;9.73;68.34;101169.67;1743794;81;21359;-55
2023/09/11 02:15:56;;;;;;;32.73;13.90;;;;;;;9.70;68.32;101166.75;1738866;82;21362;-56
2023/09/11 02:19:02;;;;;;;39.83;16.90;;;;;;;9.69;68.32;101169.11;1685987;83;21272;-55
2023/09/11 02:22:08;;;;;;;40.60;17.80;;;;;;;9.67;68.39;101163.45;1685151;85;21450;-55
2023/09/11 02:25:16;;;;;;;40.73;18.02;;;;;;;9.65;68.46;101167.70;1745025;82;21218;-56
2023/09/11 02:28:21;;;;;;;40.35;17.17;;;;;;;9.62;68.42;101165.27;1717489;83;21389;-56
2023/09/11 02:31:27;;;;;;;43.25;17.65;;;;;;;9.57;68.34;101161.25;1742006;82;21218;-56
2023/09/11 02:34:33;;;;;;;34.08;16.55;;;;;;;9.50;68.28;101165.09;1705882;82;21410;-55
2023/09/11 02:37:39;;;;;;;33.02;16.60;;;;;;;9.45;68.27;101170.14;1735870;81;21473;-54
2023/09/11 02:40:45;;;;;;;37.53;15.58;;;;;;;9.43;68.40;101168.58;1701505;82;21914;-55
2023/09/11 02:43:53;;;;;;;34.53;16.27;;;;;;;9.43;68.53;101171.31;1740889;80;21299;-56
2023/09/11 02:47:01;;;;;;;30.25;15.28;;;;;;;9.43;68.65;101172.68;1728330;82;21363;-55
2023/09/11 02:50:07;;;;;;;28.85;15.38;;;;;;;9.43;68.72;101172.68;1722541;81;21223;-55
2023/09/11 02:53:16;;;;;;;29.12;14.63;;;;;;;9.44;68.77;101181.22;1745202;80;21838;-56
2023/09/11 02:56:22;;;;;;;28.00;14.43;;;;;;;9.42;68.82;101175.91;1697414;83;21358;-56
2023/09/11 02:59:28;;;;;;;30.05;14.85;;;;;;;9.41;68.84;101172.83;1737061;81;21357;-54
2023/09/11 03:02:35;;;;;;;24.60;14.73;;;;;;;9.40;68.77;101177.08;1743776;80;21346;-59
2023/09/11 03:05:42;;;;;;;30.68;14.20;;;;;;;9.33;68.63;101174.57;1730730;82;21378;-59
2023/09/11 03:08:50;;;;;;;28.95;14.60;;;;;;;9.28;68.61;101181.85;1741382;82;21302;-58
2023/09/11 03:11:58;;;;;;;29.70;14.78;;;;;;;9.27;68.76;101182.87;1733563;82;21175;-58
2023/09/11 03:15:04;;;;;;;26.73;14.18;;;;;;;9.27;68.90;101187.47;1735759;81;21172;-59
2023/09/11 03:18:09;;;;;;;29.63;13.80;;;;;;;9.26;68.87;101192.06;1738989;82;21723;-60
2023/09/11 03:21:14;;;;;;;26.05;15.03;;;;;;;9.24;68.91;101189.13;1714421;81;21815;-58
2023/09/11 03:24:22;;;;;;;27.73;14.15;;;;;;;9.23;69.02;101190.99;1739474;81;21954;-59
2023/09/11 03:27:27;;;;;;;30.00;13.32;;;;;;;9.25;69.12;101185.38;1739400;82;21673;-59
2023/09/11 03:30:33;;;;;;;26.23;13.30;;;;;;;9.25;69.17;101187.62;1739430;81;21783;-59
2023/09/11 03:33:39;;;;;;;29.80;14.35;;;;;;;9.24;69.04;101188.64;1723026;81;21575;-58
2023/09/11 03:36:46;;;;;;;28.30;14.23;;;;;;;9.22;69.03;101194.74;1719281;81;21223;-58
2023/09/11 03:39:51;;;;;;;23.10;13.48;;;;;;;9.25;69.15;101193.57;1718640;82;21230;-58
2023/09/11 03:42:58;;;;;;;24.43;12.40;;;;;;;9.26;69.28;101189.86;1720730;82;21838;-58
2023/09/11 03:46:03;;;;;;;22.05;13.15;;;;;;;9.28;69.32;101196.88;1740503;82;21342;-58
2023/09/11 03:49:09;;;;;;;20.05;12.25;;;;;;;9.30;69.34;101193.50;1740440;82;21801;-58
2023/09/11 03:52:15;;;;;;;22.50;12.40;;;;;;;9.32;69.35;101191.98;1734829;80;21208;-59
2023/09/11 03:55:20;;;;;;;26.42;12.88;;;;;;;9.32;69.33;101191.49;1725445;82;21832;-59
2023/09/11 03:58:27;;;;;;;26.23;12.13;;;;;;;9.35;69.41;101191.19;1740219;80;21381;-58
2023/09/11 04:01:32;;;;;;;22.40;13.22;;;;;;;9.39;69.53;101196.70;1697661;82;21963;-59
2023/09/11 04:04:38;;;;;;;25.88;12.98;;;;;;;9.44;69.63;101199.86;1706977;83;21289;-58
2023/09/11 04:07:45;;;;;;;27.50;13.68;;;;;;;9.49;69.74;101200.27;1679150;84;21482;-58
2023/09/11 04:10:50;;;;;;;29.07;13.58;;;;;;;9.55;69.80;101202.41;1725828;81;21341;-58
2023/09/11 04:13:55;;;;;;;28.20;14.83;;;;;;;9.61;69.87;101195.50;1713028;82;21499;-58
2023/09/11 04:17:02;;;;;;;36.98;17.32;;;;;;;9.66;69.91;101185.81;1662806;84;21440;-59
2023/09/11 04:20:09;;;;;;;28.42;16.48;;;;;;;9.73;69.98;101192.42;1713180;81;21342;-58
2023/09/11 04:23:15;;;;;;;26.90;15.05;;;;;;;9.82;70.06;101188.77;1698552;82;21853;-59
2023/09/11 04:26:21;;;;;;;24.47;15.15;;;;;;;9.87;70.13;101193.28;1710847;82;21216;-59
2023/09/11 04:29:31;;;;;;;24.30;14.20;;;;;;;9.95;70.21;101198.86;1711047;82;21741;-59
2023/09/11 04:32:37;;;;;;;27.05;13.95;;;;;;;10.02;70.29;101198.58;1709969;82;21234;-59
2023/09/11 04:35:44;;;;;;;22.25;13.48;;;;;;;10.10;70.39;101186.94;1676478;83;21280;-59
2023/09/11 04:38:50;;;;;;;26.57;14.18;;;;;;;10.18;70.47;101193.34;1688817;85;21911;-59
2023/09/11 04:41:57;;;;;;;22.05;13.15;;;;;;;10.27;70.54;101188.34;1719708;81;21214;-59
2023/09/11 04:45:03;;;;;;;40.38;22.75;;;;;;;10.36;70.64;101186.03;1735723;81;21229;-60
2023/09/11 04:48:11;;;;;;;25.92;15.20;;;;;;;10.47;70.70;101187.67;1712995;82;21222;-58
2023/09/11 04:51:17;;;;;;;23.83;13.58;;;;;;;10.56;70.78;101178.51;1711612;83;21404;-59
2023/09/11 04:54:22;;;;;;;35.23;15.48;;;;;;;10.67;70.87;101182.91;1726956;82;21326;-59
2023/09/11 04:57:28;;;;;;;27.17;15.30;;;;;;;10.78;70.96;101179.44;1715750;80;21177;-59
2023/09/11 05:00:34;;;;;;;31.20;17.23;;;;;;;10.89;71.06;101176.45;1690354;83;22027;-57
2023/09/11 05:03:40;;;;;;;27.00;15.40;;;;;;;11.00;71.15;101178.94;1685400;82;21232;-57
2023/09/11 05:06:51;;;;;;;28.92;16.65;;;;;;;11.12;71.23;101172.66;1689704;83;21248;-57
2023/09/11 05:09:59;;;;;;;31.60;16.55;;;;;;;11.23;71.33;101172.40;1712026;81;21223;-58
2023/09/11 05:13:06;;;;;;;30.40;15.90;;;;;;;11.35;71.43;101167.02;1710082;82;21220;-59
2023/09/11 05:16:13;;;;;;;29.75;15.28;;;;;;;11.49;71.55;101169.16;1758673;79;21239;-56
2023/09/11 05:19:18;;;;;;;26.60;15.88;;;;;;;11.61;71.63;101165.09;1732033;81;21210;-57
2023/09/11 05:22:25;;;;;;;22.20;15.48;;;;;;;11.75;71.72;101165.87;1728073;80;21737;-56
2023/09/11 05:25:32;;;;;;;26.10;15.45;;;;;;;11.88;71.82;101163.05;1721030;82;21235;-56
2023/09/11 05:28:40;;;;;;;29.87;16.45;;;;;;;12.03;71.88;101163.28;1733457;81;21434;-57
2023/09/11 05:31:48;;;;;;;23.32;15.83;;;;;;;12.17;71.91;101163.13;1738190;82;21818;-57
2023/09/11 05:34:55;;;;;;;17.73;13.98;;;;;;;12.28;71.97;101158.20;1739255;81;21688;-58
2023/09/11 05:38:01;;;;;;;20.23;12.45;;;;;;;12.43;72.03;101160.62;1711819;83;21393;-58
2023/09/11 05:41:07;;;;;;;18.73;11.68;;;;;;;12.56;72.11;101158.78;1721200;83;21418;-59
2023/09/11 05:44:14;;;;;;;22.32;11.63;;;;;;;12.68;72.14;101166.52;1740950;81;21246;-57
2023/09/11 05:47:21;;;;;;;20.43;12.82;;;;;;;12.79;72.19;101163.94;1711819;83;21417;-59
2023/09/11 05:50:26;;;;;;;19.62;11.45;;;;;;;12.90;72.22;101162.22;1742081;81;21278;-58
2023/09/11 05:53:34;;;;;;;20.32;10.45;;;;;;;13.02;72.26;101168.61;1719858;81;21368;-60
2023/09/11 05:56:41;;;;;;;15.80;11.20;;;;;;;13.13;72.30;101169.63;1701597;82;21848;-58
2023/09/11 05:59:48;;;;;;;27.17;11.85;;;;;;;13.24;72.35;101162.39;1709796;82;21871;-59
2023/09/11 06:02:57;;;;;;;18.73;11.63;;;;;;;13.37;72.37;101164.61;1695126;84;21354;-57
2023/09/11 06:06:03;;;;;;;21.33;11.43;;;;;;;13.50;72.45;101168.55;1690395;83;21228;-57
2023/09/11 06:09:12;;;;;;;14.03;11.03;;;;;;;13.66;72.53;101161.27;1680859;81;21948;-57
2023/09/11 06:12:21;;;;;;;15.40;11.15;;;;;;;13.78;72.57;101159.33;1738943;80;21367;-59
2023/09/11 06:15:33;;;;;;;16.57;10.90;;;;;;;13.91;72.59;101158.77;1753627;80;21214;-58
2023/09/11 06:18:36;;;;;;;14.53;10.00;;;;;;;14.05;72.63;101164.38;1728302;81;21975;-60
2023/09/11 06:21:45;;;;;;;16.05;10.63;;;;;;;14.18;72.67;101159.67;1686331;82;21241;-60
2023/09/11 06:24:51;;;;;;;16.50;9.93;;;;;;;14.36;72.76;101168.56;1696633;83;21295;-58
2023/09/11 06:27:58;;;;;;;14.70;9.65;;;;;;;14.51;72.81;101162.09;1706234;82;21226;-57
2023/09/11 06:31:04;;;;;;;14.40;9.33;;;;;;;14.68;72.85;101162.86;1699981;81;21227;-55
2023/09/11 06:34:10;;;;;;;15.45;8.35;;;;;;;14.83;72.86;101163.75;1663313;84;21776;-54
2023/09/11 06:37:16;;;;;;;12.75;8.80;;;;;;;14.99;72.88;101153.97;1718978;81;21444;-54
2023/09/11 06:40:22;;;;;;;12.98;9.35;;;;;;;15.13;72.85;101165.56;1721128;81;21728;-54
2023/09/11 06:43:29;;;;;;;15.75;8.65;;;;;;;15.27;72.86;101163.91;1708950;82;21306;-54
2023/09/11 06:46:35;;;;;;;11.38;8.70;;;;;;;15.39;72.79;101170.70;1747157;81;21223;-54
2023/09/11 06:49:41;;;;;;;12.13;8.93;;;;;;;15.49;72.76;101159.72;1750684;82;21324;-54
2023/09/11 06:52:47;;;;;;;12.05;7.70;;;;;;;15.59;72.67;101160.31;1731213;80;21978;-54
2023/09/11 06:55:55;;;;;;;10.65;6.85;;;;;;;15.71;72.68;101151.91;1697759;82;21466;-52
2023/09/11 06:59:01;;;;;;;15.90;6.92;;;;;;;15.84;72.71;101151.23;1698495;81;21508;-54
2023/09/11 07:02:09;;;;;;;11.80;6.95;;;;;;;15.98;72.74;101152.58;1683897;84;21940;-54
2023/09/11 07:05:16;;;;;;;8.43;6.25;;;;;;;16.13;72.75;101155.33;1675210;83;21762;-54
2023/09/11 07:08:21;;;;;;;7.37;5.62;;;;;;;16.27;72.72;101155.31;1692448;84;21929;-53
2023/09/11 07:11:27;;;;;;;9.30;6.12;;;;;;;16.38;72.61;101159.47;1694972;83;21393;-53
2023/09/11 07:14:34;;;;;;;8.65;6.28;;;;;;;16.48;72.50;101157.80;1737353;81;21731;-56
2023/09/11 07:17:39;;;;;;;7.33;5.58;;;;;;;16.60;72.44;101153.50;1708058;81;21971;-55
2023/09/11 07:20:45;;;;;;;6.50;5.58;;;;;;;16.69;72.34;101149.54;1717568;82;21872;-54
2023/09/11 07:23:52;;;;;;;9.93;6.85;;;;;;;16.78;72.28;101146.45;1668057;81;21244;-54
2023/09/11 07:26:58;;;;;;;7.50;5.33;;;;;;;16.88;72.19;101153.03;1700426;82;21348;-54
2023/09/11 07:30:10;;;;;;;9.95;5.85;;;;;;;16.96;72.06;101146.86;1722103;82;21236;-55
2023/09/11 07:33:15;;;;;;;8.13;5.80;;;;;;;17.04;71.94;101146.72;1738003;82;21723;-55
2023/09/11 07:36:25;;;;;;;6.40;5.10;;;;;;;17.14;71.86;101147.21;1693549;83;21404;-55
2023/09/11 07:39:30;;;;;;;9.40;5.28;;;;;;;17.26;71.80;101147.53;1742128;82;21247;-55
2023/09/11 07:42:36;;;;;;;8.13;5.75;;;;;;;17.36;71.73;101146.11;1721302;82;21362;-55
2023/09/11 07:45:41;;;;;;;7.42;5.30;;;;;;;17.47;71.70;101149.75;1743802;80;21298;-55
2023/09/11 07:48:47;;;;;;;6.80;5.53;;;;;;;17.58;71.58;101140.05;1732562;81;21361;-54
2023/09/11 07:51:54;;;;;;;8.15;5.80;;;;;;;17.67;71.45;101141.59;1713312;83;21438;-54
2023/09/11 07:54:58;;;;;;;10.43;5.67;;;;;;;17.76;71.34;101137.58;1712401;84;21246;-54
2023/09/11 07:58:05;;;;;;;7.85;5.20;;;;;;;17.88;71.27;101139.60;1691883;84;21224;-56
2023/09/11 08:01:11;;;;;;;6.65;5.33;;;;;;;18.02;71.16;101134.10;1738489;81;21771;-54
2023/09/11 08:04:16;;;;;;;8.73;5.25;;;;;;;18.15;71.09;101133.66;1717395;83;21409;-54
2023/09/11 08:07:22;;;;;;;6.95;5.33;;;;;;;18.30;70.96;101132.13;1736010;81;21323;-55
2023/09/11 08:10:31;;;;;;;8.63;5.35;;;;;;;18.43;70.84;101134.95;1709297;82;21389;-55
2023/09/11 08:13:38;;;;;;;7.42;4.70;;;;;;;18.56;70.65;101133.61;1745461;80;21227;-55
2023/09/11 08:16:44;;;;;;;6.40;4.75;;;;;;;18.70;70.46;101124.24;1765706;81;21678;-56
2023/09/11 08:19:51;;;;;;;9.65;4.45;;;;;;;18.86;70.28;101120.55;1727408;80;21314;-56
2023/09/11 08:22:58;;;;;;;6.00;4.55;;;;;;;19.01;70.14;101123.97;1675376;84;21287;-56
2023/09/11 08:26:09;;;;;;;5.95;4.53;;;;;;;19.18;69.97;101119.72;1702909;82;21221;-56
2023/09/11 08:29:15;;;;;;;11.55;8.33;;;;;;;19.28;69.74;101117.38;1716975;81;21252;-55
2023/09/11 08:32:20;;;;;;;5.90;4.72;;;;;;;19.39;69.54;101113.64;1725886;81;21771;-55
2023/09/11 08:35:26;;;;;;;7.55;5.35;;;;;;;19.50;69.35;101114.38;1718551;83;21378;-55
2023/09/11 08:38:33;;;;;;;6.85;4.80;;;;;;;19.49;69.02;101103.80;1738967;81;21783;-56
2023/09/11 08:41:39;;;;;;;7.95;4.92;;;;;;;19.52;68.84;101103.91;1739290;80;21187;-55
2023/09/11 08:44:45;;;;;;;9.75;5.50;;;;;;;19.59;68.76;101106.12;1725361;82;21749;-55
2023/09/11 08:47:51;;;;;;;10.08;4.85;;;;;;;19.68;68.52;101102.06;1738799;80;21366;-54
2023/09/11 08:51:06;;;;;;;6.25;4.90;;;;;;;19.76;68.35;101097.63;1718849;82;21931;-54
2023/09/11 08:54:12;;;;;;;7.83;4.80;;;;;;;19.81;68.17;101092.28;1704451;82;21381;-53
2023/09/11 08:57:21;;;;;;;6.60;5.10;;;;;;;19.94;68.05;101081.13;1722508;82;21243;-56
2023/09/11 09:00:28;;;;;;;5.65;4.70;;;;;;;20.08;67.90;101079.99;1736150;82;21203;-56
2023/09/11 09:03:35;;;;;;;9.23;4.58;;;;;;;20.16;67.52;101079.78;1689297;83;21717;-58
2023/09/11 09:06:41;;;;;;;5.70;4.60;;;;;;;20.23;67.29;101078.66;1715934;83;21295;-58
2023/09/11 09:09:47;;;;;;;6.53;4.87;;;;;;;20.31;67.18;101071.45;1736257;82;21191;-57
2023/09/11 09:12:53;;;;;;;6.45;4.28;;;;;;;20.41;66.95;101069.58;1710978;83;21183;-58
2023/09/11 09:15:58;;;;;;;8.50;4.50;;;;;;;20.50;66.71;101071.88;1709745;84;21187;-55
2023/09/11 09:19:03;;;;;;;6.28;4.35;;;;;;;20.58;66.48;101068.83;1736341;82;21223;-56
2023/09/11 09:22:14;;;;;;;5.60;4.65;;;;;;;20.58;66.17;101056.88;1734181;82;21254;-58
2023/09/11 09:25:19;;;;;;;5.75;4.37;;;;;;;20.51;65.90;101058.83;1738525;82;21164;-58
2023/09/11 09:28:34;;;;;;;6.90;4.60;;;;;;;20.40;65.61;101059.02;1705125;82;21720;-56
2023/09/11 09:31:41;;;;;;;9.73;5.25;;;;;;;20.32;65.41;101052.85;1738440;82;21207;-56
2023/09/11 09:34:52;;;;;;;8.63;4.25;;;;;;;20.38;65.36;101053.34;1715970;81;21214;-57
2023/09/11 09:38:02;;;;;;;9.75;4.60;;;;;;;20.52;65.35;101050.26;1688758;84;21218;-58
2023/09/11 09:41:20;;;;;;;7.55;4.78;;;;;;;20.68;65.25;101052.50;1689773;83;21270;-56
2023/09/11 09:44:39;;;;;;;8.98;4.85;;;;;;;20.85;65.14;101043.08;1717601;81;21900;-56
2023/09/11 09:47:46;;;;;;;6.47;4.30;;;;;;;21.03;64.97;101042.28;1681372;83;21583;-56
2023/09/11 09:51:09;;;;;;;5.53;4.45;;;;;;;21.17;64.67;101037.77;1703389;82;21232;-56
2023/09/11 09:54:14;;;;;;;9.53;4.53;;;;;;;21.26;64.42;101036.41;1711224;81;21227;-57
2023/09/11 09:57:24;;;;;;;6.92;4.33;;;;;;;21.33;64.07;101040.48;1708593;82;21795;-57
2023/09/11 10:00:31;;;;;;;8.43;4.40;;;;;;;21.30;63.71;101033.98;1716601;82;21261;-56
2023/09/11 10:03:50;;;;;;;5.83;4.40;;;;;;;21.27;63.47;101029.74;1709270;81;21443;-58
2023/09/11 10:07:03;;;;;;;8.98;5.00;;;;;;;21.34;63.25;101030.54;1684988;83;21200;-55
2023/09/11 10:10:25;;;;;;;6.72;4.25;;;;;;;21.35;62.97;101039.20;1717061;82;21374;-59
2023/09/11 10:13:35;;;;;;;5.42;4.60;;;;;;;21.33;62.75;101026.03;1715746;82;21891;-58
2023/09/11 10:16:41;;;;;;;7.10;4.30;;;;;;;21.36;62.55;101014.42;1712626;83;21397;-57
2023/09/11 10:19:49;;;;;;;8.23;4.22;;;;;;;21.44;62.42;101019.70;1712471;83;21204;-57
2023/09/11 10:22:56;;;;;;;7.92;4.08;;;;;;;21.37;62.08;101023.11;1734701;82;21772;-57
2023/09/11 10:26:06;;;;;;;11.68;4.55;;;;;;;21.26;61.81;101014.13;1707688;83;21362;-58
2023/09/11 10:29:15;;;;;;;7.62;4.30;;;;;;;21.15;61.64;101013.49;1693725;82;21240;-56
2023/09/11 10:32:28;;;;;;;7.95;4.40;;;;;;;21.24;61.63;101005.14;1726933;80;21294;-56
2023/09/11 10:35:38;;;;;;;6.53;4.47;;;;;;;21.43;61.56;101006.86;1738968;81;21922;-55
2023/09/11 10:38:44;;;;;;;6.17;4.53;;;;;;;21.63;61.35;100999.11;1724835;81;21845;-56
2023/09/11 10:41:52;;;;;;;9.78;4.92;;;;;;;21.79;61.20;100994.34;1656519;83;21374;-56
2023/09/11 10:45:03;;;;;;;6.78;3.90;;;;;;;21.97;61.00;100997.11;1694606;83;21300;-58
2023/09/11 10:48:17;;;;;;;9.80;4.47;;;;;;;22.08;60.68;100994.05;1693347;81;21334;-55
2023/09/11 10:51:24;;;;;;;;;;;;;;;21.97;60.21;100992.92;1695332;81;21293;-58
2023/09/11 10:54:30;;;;;;;6.05;4.20;;;;;;;21.81;60.03;100989.39;1725703;82;20252;-56
2023/09/11 10:57:36;;;;;;;7.60;4.58;;;;;;;21.76;59.89;100992.55;1727829;81;22231;-56
2023/09/11 11:00:45;;;;;;;5.58;4.22;;;;;;;21.86;59.93;100985.89;1727667;80;21870;-56
2023/09/11 11:03:52;;;;;;;7.30;4.17;;;;;;;22.02;59.81;100979.67;1673002;84;21264;-53
2023/09/11 11:07:05;;;;;;;6.53;3.90;;;;;;;22.14;59.52;100974.44;1724992;81;21263;-55
2023/09/11 11:10:15;;;;;;;8.30;4.50;;;;;;;22.34;59.41;100965.78;1690422;82;21731;-54
2023/09/11 11:13:21;;;;;;;7.30;4.40;;;;;;;22.60;59.37;100972.89;1694898;83;21225;-53
2023/09/11 11:16:31;;;;;;;4.50;3.80;;;;;;;22.83;59.14;100974.34;1730119;82;21216;-54
2023/09/11 11:19:43;;;;;;;5.95;4.10;;;;;;;22.99;58.91;100958.27;1788184;79;21248;-54
2023/09/11 11:22:49;;;;;;;4.85;4.08;;;;;;;23.09;58.44;100964.92;1746222;78;21757;-54
2023/09/11 11:25:56;;;;;;;4.97;3.62;;;;;;;23.10;57.96;100958.80;1767489;79;21776;-54
2023/09/11 11:29:02;;;;;;;6.90;3.60;;;;;;;23.23;57.87;100958.56;1765088;79;21379;-56
2023/09/11 11:32:10;;;;;;;4.97;4.00;;;;;;;23.38;57.58;100958.38;1718515;80;21287;-54
2023/09/11 11:35:16;;;;;;;4.90;3.90;;;;;;;23.39;57.04;100961.47;1793267;79;21168;-54
2023/09/11 11:38:27;;;;;;;6.83;3.75;;;;;;;23.21;56.53;100957.38;1762673;78;21196;-55
2023/09/11 11:41:34;;;;;;;8.95;3.72;;;;;;;23.08;56.22;100956.79;1785779;79;21819;-56
2023/09/11 11:44:43;;;;;;;5.87;4.80;;;;;;;23.12;56.21;100954.66;1757308;80;21220;-55
2023/09/11 11:47:49;;;;;;;6.12;3.92;;;;;;;23.26;56.23;100951.11;1743592;81;21200;-56
2023/09/11 11:50:57;;;;;;;6.12;3.80;;;;;;;23.34;55.95;100952.14;1759516;81;21909;-53
2023/09/11 11:54:04;;;;;;;5.03;3.87;;;;;;;23.36;55.68;100945.20;1765924;79;21982;-55
2023/09/11 11:57:11;;;;;;;5.10;3.87;;;;;;;23.38;55.39;100940.76;1774329;79;21374;-55
2023/09/11 12:00:19;;;;;;;5.03;3.65;;;;;;;23.39;55.05;100941.91;1779142;79;21386;-55
2023/09/11 12:03:24;;;;;;;7.70;4.10;;;;;;;23.42;54.89;100940.58;1721281;80;21343;-55
2023/09/11 12:06:31;;;;;;;5.17;3.80;;;;;;;23.47;54.64;100937.88;1744510;81;21923;-55
2023/09/11 12:09:36;;;;;;;6.10;3.85;;;;;;;23.53;54.49;100926.55;1771105;80;21348;-54
2023/09/11 12:12:47;;;;;;;6.08;4.20;;;;;;;23.57;54.26;100922.72;1787041;79;21192;-53
2023/09/11 12:16:02;;;;;;;6.03;3.90;;;;;;;23.59;53.94;100923.34;1777050;79;21244;-53
2023/09/11 12:19:08;;;;;;;6.17;3.58;;;;;;;23.62;53.70;100924.23;1801062;79;21700;-53
2023/09/11 12:22:14;;;;;;;6.37;3.92;;;;;;;23.67;53.51;100918.75;1797201;79;21934;-54
2023/09/11 12:25:21;;;;;;;5.92;3.67;;;;;;;23.64;53.19;100918.68;1790639;79;21580;-53
2023/09/11 12:28:30;;;;;;;4.60;3.55;;;;;;;23.68;53.11;100914.84;1801030;79;21787;-53
2023/09/11 12:31:37;;;;;;;7.10;4.20;;;;;;;23.71;52.94;100910.16;1743718;81;21437;-53
2023/09/11 12:34:51;;;;;;;7.50;3.87;;;;;;;23.73;52.74;100905.17;1801275;79;21214;-55
2023/09/11 12:37:56;;;;;;;8.75;3.72;;;;;;;23.74;52.51;100906.86;1741082;82;21441;-53
2023/09/11 12:41:01;;;;;;;4.85;3.85;;;;;;;23.63;51.99;100906.34;1786920;79;21947;-52
2023/09/11 12:44:07;;;;;;;8.65;3.80;;;;;;;23.49;51.65;100907.73;1769329;80;21213;-55
2023/09/11 12:47:13;;;;;;;5.50;4.12;;;;;;;23.38;51.37;100909.48;1772883;80;21861;-55
2023/09/11 12:50:19;;;;;;;8.90;5.55;;;;;;;23.31;51.15;100905.09;1793051;79;21216;-55
2023/09/11 12:53:24;;;;;;;8.20;3.90;;;;;;;23.28;51.13;100900.00;1738013;80;21351;-54
2023/09/11 12:56:33;;;;;;;4.90;4.00;;;;;;;23.31;51.03;100895.31;1788330;79;21374;-53
2023/09/11 12:59:39;;;;;;;7.62;4.08;;;;;;;23.30;50.87;100893.09;1781656;79;21590;-56
2023/09/11 13:02:44;;;;;;;7.03;3.87;;;;;;;23.31;50.70;100896.72;1804993;79;21347;-56
2023/09/11 13:05:51;;;;;;;7.83;3.95;;;;;;;23.31;50.46;100902.30;1731475;83;21730;-54
2023/09/11 13:09:00;;;;;;;6.12;3.50;;;;;;;23.20;50.15;100887.78;1741835;79;22046;-54
2023/09/11 13:12:06;;;;;;;5.65;4.00;;;;;;;23.14;50.01;100888.77;1773181;79;21220;-58
2023/09/11 13:15:14;;;;;;;5.62;4.10;;;;;;;23.09;49.78;100889.50;1702868;80;21219;-54
2023/09/11 13:18:20;;;;;;;4.85;3.85;;;;;;;23.03;49.57;100882.65;1741800;79;21224;-54
2023/09/11 13:21:28;;;;;;;6.00;3.80;;;;;;;22.97;49.49;100885.03;1767671;78;21201;-55
2023/09/11 13:24:35;;;;;;;6.83;3.58;;;;;;;22.90;49.37;100881.50;1769244;79;21378;-55
2023/09/11 13:27:41;;;;;;;4.78;3.67;;;;;;;22.81;49.19;100884.37;1775879;79;21174;-55
2023/09/11 13:30:47;;;;;;;4.95;4.05;;;;;;;22.74;49.05;100878.91;1738793;80;21227;-54
2023/09/11 13:33:54;;;;;;;6.12;3.85;;;;;;;22.74;48.99;100873.89;1709468;81;21749;-56
2023/09/11 13:37:01;;;;;;;6.20;3.60;;;;;;;22.74;48.85;100870.53;1758379;79;21764;-54
2023/09/11 13:40:06;;;;;;;6.35;3.92;;;;;;;22.75;48.76;100869.99;1717071;80;21538;-54
2023/09/11 13:43:12;;;;;;;7.40;4.12;;;;;;;22.76;48.64;100871.69;1770568;80;21958;-55
2023/09/11 13:46:18;;;;;;;5.20;3.95;;;;;;;22.78;48.58;100872.30;1760577;80;21772;-54
2023/09/11 13:49:25;;;;;;;4.70;4.00;;;;;;;22.80;48.51;100858.95;1759189;79;21220;-54
2023/09/11 13:52:29;;;;;;;8.03;4.03;;;;;;;22.82;48.46;100866.52;1770025;79;21264;-53
2023/09/11 13:55:38;;;;;;;5.83;4.08;;;;;;;22.84;48.38;100861.55;1786560;78;21417;-54
2023/09/11 13:58:45;;;;;;;7.08;4.10;;;;;;;22.83;48.23;100861.25;1787407;79;21860;-55
2023/09/11 14:01:50;;;;;;;5.12;3.90;;;;;;;22.78;48.06;100866.71;1775088;79;21343;-53
2023/09/11 14:04:57;;;;;;;4.75;3.90;;;;;;;22.73;47.99;100863.27;1766840;77;21358;-54
2023/09/11 14:08:03;;;;;;;6.10;3.92;;;;;;;22.70;47.87;100858.70;1801763;78;21264;-53
2023/09/11 14:11:10;;;;;;;4.70;3.52;;;;;;;22.66;47.76;100849.12;1803920;77;21373;-55
2023/09/11 14:14:17;;;;;;;7.72;4.10;;;;;;;22.63;47.64;100856.59;1780966;78;21239;-56
2023/09/11 14:17:23;;;;;;;6.17;3.80;;;;;;;22.59;47.55;100851.19;1765553;77;21582;-55
2023/09/11 14:20:29;;;;;;;7.80;3.98;;;;;;;22.54;47.46;100848.27;1750593;80;21181;-55
2023/09/11 14:23:35;;;;;;;6.47;3.90;;;;;;;22.53;47.42;100841.86;1771790;78;21354;-56